createdAt,value
2019-06-26T12:30:46.797Z,54.45
2019-06-26T12:33:18.323Z,55.36
2019-06-26T12:35:47.530Z,56.02
2019-06-26T12:38:17.729Z,56.10
2019-06-26T12:40:48.575Z,55.50
2019-06-26T12:50:14.147Z,54.67
2019-06-26T12:53:13.844Z,53.69
2019-06-26T12:55:52.109Z,52.60
2019-06-26T12:58:27.315Z,51.31
2019-06-26T13:00:57.482Z,50.12
2019-06-26T13:03:32.324Z,49.76
2019-06-26T13:06:07.420Z,49.65
2019-06-26T13:08:38.255Z,49.18
2019-06-26T13:11:07.269Z,49.05
2019-06-26T13:14:01.147Z,48.60
2019-06-26T13:16:15.098Z,48.29
2019-06-26T13:18:50.175Z,47.76
2019-06-26T13:21:19.287Z,47.62
2019-06-26T13:23:57.269Z,47.83
2019-06-26T13:26:32.353Z,47.05
2019-06-26T13:29:09.968Z,46.99
2019-06-26T13:31:39.451Z,47.09
2019-06-26T13:34:14.338Z,46.94
2019-06-26T13:37:07.305Z,46.00
2019-06-26T13:39:38.556Z,45.99
2019-06-26T13:42:15.319Z,45.87
2019-06-26T13:44:51.186Z,46.53
2019-06-26T13:47:20.188Z,46.36
2019-06-26T13:49:49.128Z,46.54
2019-06-26T13:52:24.459Z,47.41
2019-06-26T13:54:57.029Z,47.89
2019-06-26T13:57:23.954Z,48.16
2019-06-26T13:59:53.829Z,47.66
2019-06-26T14:02:29.880Z,47.10
2019-06-26T14:04:58.996Z,47.71
2019-06-26T14:07:28.035Z,49.13
2019-06-26T14:09:57.062Z,49.63
2019-06-26T14:12:26.913Z,50.41
2019-06-26T14:14:57.764Z,51.25
2019-06-26T14:17:28.053Z,51.51
2019-06-26T14:19:57.297Z,51.33
2019-06-26T14:22:26.526Z,51.02
2019-06-26T14:24:56.168Z,50.53
2019-06-26T14:27:26.447Z,50.06
2019-06-26T14:29:55.967Z,50.15
2019-06-26T14:32:28.368Z,50.04
2019-06-26T14:35:04.248Z,49.85
2019-06-26T14:37:51.581Z,49.02
2019-06-26T14:40:25.733Z,49.07
2019-06-26T14:42:57.639Z,49.12
2019-06-26T14:45:26.683Z,49.21
2019-06-26T14:47:57.311Z,49.20
2019-06-26T14:50:35.592Z,48.98
2019-06-26T14:53:06.516Z,49.47
2019-06-26T14:55:36.819Z,49.96
2019-06-26T14:58:12.469Z,51.02
2019-06-26T15:00:48.481Z,50.67
2019-06-26T15:03:18.389Z,49.85
2019-06-26T15:05:50.447Z,49.29
2019-06-26T15:08:20.755Z,49.69
2019-06-26T15:10:49.880Z,49.88
2019-06-26T15:13:25.605Z,49.93
2019-06-26T15:16:02.407Z,49.58
2019-06-26T15:18:37.337Z,48.74
2019-06-26T15:21:09.203Z,49.00
2019-06-26T15:23:44.085Z,49.08
2019-06-26T15:26:13.989Z,49.00
2019-06-26T15:28:46.409Z,48.50
2019-06-26T15:31:15.890Z,48.31
2019-06-26T15:33:45.195Z,47.95
2019-06-26T15:36:21.710Z,47.34
2019-06-26T15:39:09.120Z,47.16
2019-06-26T15:41:43.441Z,46.92
2019-06-26T15:44:18.380Z,46.85
2019-06-26T15:46:52.976Z,46.48
2019-06-26T15:49:24.171Z,46.67
2019-06-26T15:51:55.307Z,46.72
2019-06-26T15:54:27.330Z,46.16
2019-06-26T15:57:02.238Z,46.19
2019-06-26T15:59:31.330Z,46.24
2019-06-26T16:02:00.746Z,46.58
2019-06-26T16:04:35.088Z,46.75
2019-06-26T16:07:03.547Z,46.54
2019-06-26T16:09:41.770Z,46.34
2019-06-26T16:12:12.255Z,45.72
2019-06-26T16:14:41.043Z,45.63
2019-06-26T16:17:17.416Z,45.60
2019-06-26T16:19:46.390Z,45.62
2019-06-26T16:22:31.578Z,44.79
2019-06-26T16:24:52.592Z,45.18
2019-06-26T16:27:27.608Z,45.26
2019-06-26T16:29:56.548Z,45.15
2019-06-26T16:32:25.714Z,45.17
2019-06-26T16:34:54.674Z,45.08
2019-06-26T16:37:25.520Z,44.68
2019-06-26T16:40:00.548Z,44.31
2019-06-26T16:42:40.968Z,44.71
2019-06-26T16:45:11.381Z,44.36
2019-06-26T16:47:44.575Z,44.86
2019-06-26T16:50:14.580Z,45.07
2019-06-26T16:52:49.782Z,44.91
2019-06-26T16:55:15.918Z,45.22
2019-06-26T16:57:51.151Z,46.02
2019-06-26T17:00:20.997Z,45.80
2019-06-26T17:02:49.918Z,46.69
2019-06-26T17:05:19.100Z,46.84
2019-06-26T17:07:54.236Z,47.05
2019-06-26T17:10:30.755Z,47.81
2019-06-26T17:13:05.830Z,47.99
2019-06-26T17:15:35.621Z,47.76
2019-06-26T17:18:05.247Z,47.47
2019-06-26T17:20:34.228Z,47.63
2019-06-26T17:23:09.391Z,47.84
2019-06-26T17:25:41.210Z,48.11
2019-06-26T17:28:16.786Z,48.75
2019-06-26T17:30:45.899Z,48.60
2019-06-26T17:33:21.506Z,48.60
2019-06-26T17:35:50.757Z,49.21
2019-06-26T17:38:26.319Z,49.69
2019-06-26T17:40:59.683Z,49.93
2019-06-26T17:43:28.593Z,50.22
2019-06-26T17:45:58.091Z,50.73
2019-06-26T17:48:27.227Z,50.96
2019-06-26T17:50:58.545Z,51.39
2019-06-26T17:53:28.294Z,51.63
2019-06-26T17:55:59.053Z,51.85
2019-06-26T17:58:32.203Z,52.27
2019-06-26T18:01:03.649Z,52.47
2019-06-26T18:03:35.245Z,52.64
2019-06-26T18:06:10.483Z,53.29
2019-06-26T18:08:51.718Z,53.41
2019-06-26T18:11:33.384Z,53.87
2019-06-26T18:14:04.088Z,54.10
2019-06-26T18:16:38.943Z,54.45
2019-06-26T18:19:14.011Z,54.77
2019-06-26T18:21:49.632Z,55.77
2019-06-26T18:24:27.754Z,56.23
2019-06-26T18:26:57.473Z,56.70
2019-06-26T18:29:32.190Z,57.13
2019-06-26T18:32:02.352Z,57.39
2019-06-26T18:34:31.832Z,57.50
2019-06-26T18:37:07.086Z,57.65
2019-06-26T18:39:36.032Z,58.04
2019-06-26T18:42:11.555Z,58.38
2019-06-26T18:44:40.471Z,58.49
2019-06-26T18:47:21.704Z,58.60
2019-06-26T18:49:51.175Z,58.99
2019-06-26T18:52:21.186Z,58.95
2019-06-26T18:54:50.223Z,59.22
2019-06-26T18:57:25.800Z,59.89
2019-06-26T18:59:58.671Z,60.22
2019-06-26T19:02:30.726Z,60.26
2019-06-26T19:05:09.918Z,60.66
2019-06-26T19:07:42.477Z,60.97
2019-06-26T19:10:17.778Z,61.52
2019-06-26T19:12:53.462Z,61.91
2019-06-26T19:15:25.056Z,62.44
2019-06-26T19:17:59.993Z,62.98
2019-06-26T19:20:33.658Z,63.46
2019-06-26T19:23:01.453Z,63.86
2019-06-26T19:25:32.359Z,64.35
2019-06-26T19:28:01.523Z,64.67
2019-06-26T19:30:30.702Z,65.02
2019-06-26T19:33:00.897Z,65.54
2019-06-26T19:35:32.829Z,65.72
2019-06-26T19:38:02.096Z,65.99
2019-06-26T19:40:31.548Z,66.32
2019-06-26T19:43:11.062Z,66.50
2019-06-26T19:45:39.879Z,67.02
2019-06-26T19:48:09.625Z,67.28
2019-06-26T19:50:38.925Z,67.38
2019-06-26T19:53:15.863Z,67.46
2019-06-26T19:55:46.607Z,67.90
2019-06-26T19:58:21.300Z,68.03
2019-06-26T20:00:48.346Z,68.22
2019-06-26T20:03:17.748Z,68.71
2019-06-26T20:05:47.249Z,69.04
2019-06-26T20:08:17.915Z,69.34
2019-06-26T20:10:47.523Z,69.51
2019-06-26T20:13:18.257Z,69.85
2019-06-26T20:15:47.359Z,70.23
2019-06-26T20:21:04.773Z,70.54
2019-06-26T20:23:34.047Z,70.78
2019-06-26T20:26:03.238Z,70.86
2019-06-26T20:28:33.912Z,71.10
2019-06-26T20:31:08.719Z,71.27
2019-06-26T20:33:38.318Z,71.49
2019-06-26T20:36:14.361Z,71.52
2019-06-26T20:38:47.421Z,71.55
2019-06-26T20:41:17.119Z,71.69
2019-06-26T20:43:52.070Z,71.84
2019-06-26T20:46:36.689Z,72.04
2019-06-26T20:49:06.750Z,72.19
2019-06-26T20:51:36.941Z,72.34
2019-06-26T20:54:14.509Z,72.46
2019-06-26T20:57:01.670Z,72.32
2019-06-26T20:59:33.965Z,72.48
2019-06-26T21:02:03.514Z,72.66
2019-06-26T21:04:33.928Z,72.80
2019-06-26T21:07:04.760Z,73.09
2019-06-26T21:09:34.046Z,73.41
2019-06-26T21:12:04.559Z,73.62
2019-06-26T21:14:40.049Z,73.81
2019-06-26T21:17:16.948Z,73.80
2019-06-26T21:19:52.740Z,74.00
2019-06-26T21:22:21.989Z,74.08
2019-06-26T21:24:57.088Z,74.09
2019-06-26T21:27:26.787Z,74.12
2019-06-26T21:30:01.982Z,74.25
2019-06-26T21:32:37.078Z,74.21
2019-06-26T21:35:12.371Z,74.31
2019-06-26T21:37:41.541Z,74.37
2019-06-26T21:40:17.733Z,74.38
2019-06-26T21:42:54.782Z,74.35
2019-06-26T21:45:27.416Z,74.37
2019-06-26T21:48:02.631Z,74.47
2019-06-26T21:50:32.872Z,74.55
2019-06-26T21:53:10.589Z,74.69
2019-06-26T21:55:39.773Z,74.85
2019-06-26T21:58:09.366Z,75.04
2019-06-26T22:00:40.975Z,75.24
2019-06-26T22:03:13.268Z,75.28
2019-06-26T22:05:42.435Z,75.44
2019-06-26T22:08:11.704Z,75.61
2019-06-26T22:10:40.889Z,75.62
2019-06-26T22:13:10.021Z,75.86
2019-06-26T22:22:35.095Z,76.16
2019-06-26T22:25:07.711Z,76.30
2019-06-26T22:27:44.994Z,76.21
2019-06-26T22:30:21.827Z,76.09
2019-06-26T22:33:00.048Z,76.08
2019-06-26T22:35:34.765Z,76.20
2019-06-26T22:38:03.865Z,76.15
2019-06-26T22:40:39.203Z,75.92
2019-06-26T22:43:13.830Z,76.10
2019-06-26T22:45:48.759Z,76.63
2019-06-26T22:48:21.618Z,76.85
2019-06-26T22:50:53.359Z,76.88
2019-06-26T22:53:28.178Z,76.87
2019-06-26T22:56:06.939Z,76.91
2019-06-26T22:58:34.073Z,77.07
2019-06-26T23:01:09.468Z,77.26
2019-06-26T23:03:38.805Z,77.11
2019-06-26T23:06:10.863Z,77.01
2019-06-26T23:08:40.437Z,76.83
2019-06-26T23:11:21.988Z,76.51
2019-06-26T23:13:57.605Z,76.84
2019-06-26T23:16:28.786Z,76.06
2019-06-26T23:19:02.255Z,76.18
2019-06-26T23:21:34.227Z,75.79
2019-06-26T23:24:03.349Z,75.03
2019-06-26T23:26:39.030Z,74.62
2019-06-26T23:29:14.368Z,74.03
2019-06-26T23:31:51.346Z,74.28
2019-06-26T23:34:23.331Z,74.71
2019-06-26T23:36:59.243Z,74.98
2019-06-26T23:39:28.881Z,75.13
2019-06-26T23:42:04.483Z,76.14
2019-06-26T23:44:39.676Z,76.13
2019-06-26T23:47:11.555Z,74.94
2019-06-26T23:49:42.242Z,74.25
2019-06-26T23:52:20.505Z,73.81
2019-06-26T23:54:50.604Z,73.99
2019-06-26T23:57:24.365Z,74.27
2019-06-26T23:59:56.711Z,75.27
